sensor_id;sensor_type;location;lat;lon;timestamp;P1;P2;P0
77365;PMS5003;66430;50.182;11.704;2023-04-24T00:00:53;5;5;
77365;PMS5003;66430;50.182;11.704;2023-04-24T00:03:19;4;4;
77365;PMS5003;66430;50.182;11.704;2023-04-24T00:05:44;3;3;
77365;PMS5003;66430;50.182;11.704;2023-04-24T00:08:10;4;4;
77365;PMS5003;66430;50.182;11.704;2023-04-24T00:10:35;5;5;
77365;PMS5003;66430;50.182;11.704;2023-04-24T00:13:00;4;4;
77365;PMS5003;66430;50.182;11.704;2023-04-24T00:15:26;4;4;
77365;PMS5003;66430;50.182;11.704;2023-04-24T00:17:51;4;4;
77365;PMS5003;66430;50.182;11.704;2023-04-24T00:20:17;3;3;
77365;PMS5003;66430;50.182;11.704;2023-04-24T00:22:42;5;5;
77365;PMS5003;66430;50.182;11.704;2023-04-24T00:25:08;5;3;
77365;PMS5003;66430;50.182;11.704;2023-04-24T00:27:33;4;4;
77365;PMS5003;66430;50.182;11.704;2023-04-24T00:29:58;5;5;
77365;PMS5003;66430;50.182;11.704;2023-04-24T00:32:24;4;4;
77365;PMS5003;66430;50.182;11.704;2023-04-24T00:34:49;3;3;
77365;PMS5003;66430;50.182;11.704;2023-04-24T00:37:15;5;5;
77365;PMS5003;66430;50.182;11.704;2023-04-24T00:39:40;6;5;
77365;PMS5003;66430;50.182;11.704;2023-04-24T00:42:05;7;7;
77365;PMS5003;66430;50.182;11.704;2023-04-24T00:44:31;6;6;
77365;PMS5003;66430;50.182;11.704;2023-04-24T00:46:56;7;6;
77365;PMS5003;66430;50.182;11.704;2023-04-24T00:49:22;5;5;
77365;PMS5003;66430;50.182;11.704;2023-04-24T00:51:48;6;5;
77365;PMS5003;66430;50.182;11.704;2023-04-24T00:54:13;5;5;
77365;PMS5003;66430;50.182;11.704;2023-04-24T00:56:38;5;5;
77365;PMS5003;66430;50.182;11.704;2023-04-24T00:59:04;4;4;
77365;PMS5003;66430;50.182;11.704;2023-04-24T01:01:29;4;4;
77365;PMS5003;66430;50.182;11.704;2023-04-24T01:03:54;7;7;
77365;PMS5003;66430;50.182;11.704;2023-04-24T01:06:20;4;4;
77365;PMS5003;66430;50.182;11.704;2023-04-24T01:08:45;6;6;
77365;PMS5003;66430;50.182;11.704;2023-04-24T01:11:11;4;4;
77365;PMS5003;66430;50.182;11.704;2023-04-24T01:13:36;5;5;
77365;PMS5003;66430;50.182;11.704;2023-04-24T01:16:02;4;4;
77365;PMS5003;66430;50.182;11.704;2023-04-24T01:18:27;5;5;
77365;PMS5003;66430;50.182;11.704;2023-04-24T01:20:53;6;4;
77365;PMS5003;66430;50.182;11.704;2023-04-24T01:23:18;5;4;
77365;PMS5003;66430;50.182;11.704;2023-04-24T01:25:43;5;5;
77365;PMS5003;66430;50.182;11.704;2023-04-24T01:28:09;4;4;
77365;PMS5003;66430;50.182;11.704;2023-04-24T01:30:34;4;4;
77365;PMS5003;66430;50.182;11.704;2023-04-24T01:33:00;5;4;
77365;PMS5003;66430;50.182;11.704;2023-04-24T01:35:25;4;4;
77365;PMS5003;66430;50.182;11.704;2023-04-24T01:37:51;5;4;
77365;PMS5003;66430;50.182;11.704;2023-04-24T01:40:16;6;4;
77365;PMS5003;66430;50.182;11.704;2023-04-24T01:42:42;4;4;
77365;PMS5003;66430;50.182;11.704;2023-04-24T01:45:08;5;4;
77365;PMS5003;66430;50.182;11.704;2023-04-24T01:47:32;4;4;
77365;PMS5003;66430;50.182;11.704;2023-04-24T01:49:58;4;4;
77365;PMS5003;66430;50.182;11.704;2023-04-24T01:52:24;3;3;
77365;PMS5003;66430;50.182;11.704;2023-04-24T01:54:49;5;5;
77365;PMS5003;66430;50.182;11.704;2023-04-24T01:57:14;3;3;
77365;PMS5003;66430;50.182;11.704;2023-04-24T01:59:40;4;3;
77365;PMS5003;66430;50.182;11.704;2023-04-24T02:02:05;5;5;
77365;PMS5003;66430;50.182;11.704;2023-04-24T02:04:31;3;3;
77365;PMS5003;66430;50.182;11.704;2023-04-24T02:06:56;4;4;
77365;PMS5003;66430;50.182;11.704;2023-04-24T02:09:22;6;5;
77365;PMS5003;66430;50.182;11.704;2023-04-24T02:11:47;4;4;
77365;PMS5003;66430;50.182;11.704;2023-04-24T02:14:12;5;5;
77365;PMS5003;66430;50.182;11.704;2023-04-24T02:16:38;5;5;
77365;PMS5003;66430;50.182;11.704;2023-04-24T02:19:03;6;6;
77365;PMS5003;66430;50.182;11.704;2023-04-24T02:21:29;5;5;
77365;PMS5003;66430;50.182;11.704;2023-04-24T02:23:54;5;5;
77365;PMS5003;66430;50.182;11.704;2023-04-24T02:26:20;4;4;
77365;PMS5003;66430;50.182;11.704;2023-04-24T02:28:45;5;5;
77365;PMS5003;66430;50.182;11.704;2023-04-24T02:31:11;5;4;
77365;PMS5003;66430;50.182;11.704;2023-04-24T02:33:36;5;5;
77365;PMS5003;66430;50.182;11.704;2023-04-24T02:36:02;5;5;
77365;PMS5003;66430;50.182;11.704;2023-04-24T02:38:27;7;5;
77365;PMS5003;66430;50.182;11.704;2023-04-24T02:40:53;5;5;
77365;PMS5003;66430;50.182;11.704;2023-04-24T02:43:18;3;3;
77365;PMS5003;66430;50.182;11.704;2023-04-24T02:45:43;4;4;
77365;PMS5003;66430;50.182;11.704;2023-04-24T02:48:09;4;4;
77365;PMS5003;66430;50.182;11.704;2023-04-24T02:50:34;4;4;
77365;PMS5003;66430;50.182;11.704;2023-04-24T02:53:00;6;6;
77365;PMS5003;66430;50.182;11.704;2023-04-24T02:55:25;5;4;
77365;PMS5003;66430;50.182;11.704;2023-04-24T02:57:51;7;5;
77365;PMS5003;66430;50.182;11.704;2023-04-24T03:00:16;5;5;
77365;PMS5003;66430;50.182;11.704;2023-04-24T03:02:42;3;3;
77365;PMS5003;66430;50.182;11.704;2023-04-24T03:05:07;5;4;
77365;PMS5003;66430;50.182;11.704;2023-04-24T03:07:33;4;4;
77365;PMS5003;66430;50.182;11.704;2023-04-24T03:09:58;7;5;
77365;PMS5003;66430;50.182;11.704;2023-04-24T03:12:24;4;4;
77365;PMS5003;66430;50.182;11.704;2023-04-24T03:14:49;6;4;
77365;PMS5003;66430;50.182;11.704;2023-04-24T03:17:14;4;4;
77365;PMS5003;66430;50.182;11.704;2023-04-24T03:19:40;4;4;
77365;PMS5003;66430;50.182;11.704;2023-04-24T03:22:05;5;5;
77365;PMS5003;66430;50.182;11.704;2023-04-24T03:24:31;5;5;
77365;PMS5003;66430;50.182;11.704;2023-04-24T03:26:56;3;3;
77365;PMS5003;66430;50.182;11.704;2023-04-24T03:29:22;5;5;
77365;PMS5003;66430;50.182;11.704;2023-04-24T03:31:47;8;8;
77365;PMS5003;66430;50.182;11.704;2023-04-24T03:34:13;8;8;
77365;PMS5003;66430;50.182;11.704;2023-04-24T03:36:38;7;7;
77365;PMS5003;66430;50.182;11.704;2023-04-24T03:39:04;8;8;
77365;PMS5003;66430;50.182;11.704;2023-04-24T03:41:29;7;7;
77365;PMS5003;66430;50.182;11.704;2023-04-24T03:43:55;7;7;
77365;PMS5003;66430;50.182;11.704;2023-04-24T03:46:20;10;9;
77365;PMS5003;66430;50.182;11.704;2023-04-24T03:48:45;10;10;
77365;PMS5003;66430;50.182;11.704;2023-04-24T03:51:11;9;8;
77365;PMS5003;66430;50.182;11.704;2023-04-24T03:53:36;10;9;
77365;PMS5003;66430;50.182;11.704;2023-04-24T03:56:02;10;10;
77365;PMS5003;66430;50.182;11.704;2023-04-24T03:58:27;11;8;
77365;PMS5003;66430;50.182;11.704;2023-04-24T04:00:53;13;13;
77365;PMS5003;66430;50.182;11.704;2023-04-24T04:03:18;9;9;
77365;PMS5003;66430;50.182;11.704;2023-04-24T04:05:43;11;9;
77365;PMS5003;66430;50.182;11.704;2023-04-24T04:08:09;8;7;
77365;PMS5003;66430;50.182;11.704;2023-04-24T04:10:34;9;9;
77365;PMS5003;66430;50.182;11.704;2023-04-24T04:13:00;9;9;
77365;PMS5003;66430;50.182;11.704;2023-04-24T04:15:25;7;6;
77365;PMS5003;66430;50.182;11.704;2023-04-24T04:17:51;9;9;
77365;PMS5003;66430;50.182;11.704;2023-04-24T04:20:16;7;7;
77365;PMS5003;66430;50.182;11.704;2023-04-24T04:22:42;9;8;
77365;PMS5003;66430;50.182;11.704;2023-04-24T04:25:07;9;9;
77365;PMS5003;66430;50.182;11.704;2023-04-24T04:27:33;9;9;
77365;PMS5003;66430;50.182;11.704;2023-04-24T04:29:58;9;9;
77365;PMS5003;66430;50.182;11.704;2023-04-24T04:32:23;8;8;
77365;PMS5003;66430;50.182;11.704;2023-04-24T04:34:49;7;7;
77365;PMS5003;66430;50.182;11.704;2023-04-24T04:37:14;6;6;
77365;PMS5003;66430;50.182;11.704;2023-04-24T04:39:40;6;6;
77365;PMS5003;66430;50.182;11.704;2023-04-24T04:42:05;6;6;
77365;PMS5003;66430;50.182;11.704;2023-04-24T04:44:31;7;6;
77365;PMS5003;66430;50.182;11.704;2023-04-24T04:46:56;6;6;
77365;PMS5003;66430;50.182;11.704;2023-04-24T04:49:22;8;8;
77365;PMS5003;66430;50.182;11.704;2023-04-24T04:51:47;9;9;
77365;PMS5003;66430;50.182;11.704;2023-04-24T04:54:13;6;6;
77365;PMS5003;66430;50.182;11.704;2023-04-24T04:56:38;4;4;
77365;PMS5003;66430;50.182;11.704;2023-04-24T04:59:04;5;5;
77365;PMS5003;66430;50.182;11.704;2023-04-24T05:01:29;5;5;
77365;PMS5003;66430;50.182;11.704;2023-04-24T05:03:55;5;5;
77365;PMS5003;66430;50.182;11.704;2023-04-24T05:06:21;4;4;
77365;PMS5003;66430;50.182;11.704;2023-04-24T05:08:46;5;5;
77365;PMS5003;66430;50.182;11.704;2023-04-24T05:11:11;5;5;
77365;PMS5003;66430;50.182;11.704;2023-04-24T05:13:37;5;5;
77365;PMS5003;66430;50.182;11.704;2023-04-24T05:16:02;4;4;
77365;PMS5003;66430;50.182;11.704;2023-04-24T05:18:28;4;4;
77365;PMS5003;66430;50.182;11.704;2023-04-24T05:20:53;5;5;
77365;PMS5003;66430;50.182;11.704;2023-04-24T05:23:18;3;3;
77365;PMS5003;66430;50.182;11.704;2023-04-24T05:25:45;4;4;
77365;PMS5003;66430;50.182;11.704;2023-04-24T05:28:09;6;5;
77365;PMS5003;66430;50.182;11.704;2023-04-24T05:30:35;3;3;
77365;PMS5003;66430;50.182;11.704;2023-04-24T05:33:01;6;5;
77365;PMS5003;66430;50.182;11.704;2023-04-24T05:35:26;5;5;
77365;PMS5003;66430;50.182;11.704;2023-04-24T05:37:51;4;3;
77365;PMS5003;66430;50.182;11.704;2023-04-24T05:40:17;3;3;
77365;PMS5003;66430;50.182;11.704;2023-04-24T05:42:42;5;4;
77365;PMS5003;66430;50.182;11.704;2023-04-24T05:45:08;4;4;
77365;PMS5003;66430;50.182;11.704;2023-04-24T05:47:33;5;4;
77365;PMS5003;66430;50.182;11.704;2023-04-24T05:49:58;5;4;
77365;PMS5003;66430;50.182;11.704;2023-04-24T05:52:24;5;5;
77365;PMS5003;66430;50.182;11.704;2023-04-24T05:54:50;5;3;
77365;PMS5003;66430;50.182;11.704;2023-04-24T05:57:15;6;4;
77365;PMS5003;66430;50.182;11.704;2023-04-24T05:59:40;4;4;
77365;PMS5003;66430;50.182;11.704;2023-04-24T06:02:06;5;4;
77365;PMS5003;66430;50.182;11.704;2023-04-24T06:04:31;7;6;
77365;PMS5003;66430;50.182;11.704;2023-04-24T06:06:57;4;4;
77365;PMS5003;66430;50.182;11.704;2023-04-24T06:09:22;4;4;
77365;PMS5003;66430;50.182;11.704;2023-04-24T06:11:48;5;5;
77365;PMS5003;66430;50.182;11.704;2023-04-24T06:14:13;3;3;
77365;PMS5003;66430;50.182;11.704;2023-04-24T06:16:40;4;4;
77365;PMS5003;66430;50.182;11.704;2023-04-24T06:19:04;4;4;
77365;PMS5003;66430;50.182;11.704;2023-04-24T06:21:29;4;4;
77365;PMS5003;66430;50.182;11.704;2023-04-24T06:23:55;4;4;
77365;PMS5003;66430;50.182;11.704;2023-04-24T06:26:20;2;2;
77365;PMS5003;66430;50.182;11.704;2023-04-24T06:28:45;4;4;
77365;PMS5003;66430;50.182;11.704;2023-04-24T06:31:11;4;3;
77365;PMS5003;66430;50.182;11.704;2023-04-24T06:33:36;3;3;
77365;PMS5003;66430;50.182;11.704;2023-04-24T06:36:02;3;3;
77365;PMS5003;66430;50.182;11.704;2023-04-24T06:38:32;4;3;
77365;PMS5003;66430;50.182;11.704;2023-04-24T06:40:53;2;2;
77365;PMS5003;66430;50.182;11.704;2023-04-24T06:43:18;3;3;
77365;PMS5003;66430;50.182;11.704;2023-04-24T06:45:44;2;2;
77365;PMS5003;66430;50.182;11.704;2023-04-24T06:48:09;2;2;
77365;PMS5003;66430;50.182;11.704;2023-04-24T06:50:34;2;2;
77365;PMS5003;66430;50.182;11.704;2023-04-24T06:53:00;3;3;
77365;PMS5003;66430;50.182;11.704;2023-04-24T06:55:25;3;3;
77365;PMS5003;66430;50.182;11.704;2023-04-24T06:57:51;2;2;
77365;PMS5003;66430;50.182;11.704;2023-04-24T07:00:16;3;1;
77365;PMS5003;66430;50.182;11.704;2023-04-24T07:02:42;3;3;
77365;PMS5003;66430;50.182;11.704;2023-04-24T07:05:07;4;4;
77365;PMS5003;66430;50.182;11.704;2023-04-24T07:07:32;4;4;
77365;PMS5003;66430;50.182;11.704;2023-04-24T07:09:58;3;3;
77365;PMS5003;66430;50.182;11.704;2023-04-24T07:12:23;3;3;
77365;PMS5003;66430;50.182;11.704;2023-04-24T07:14:50;4;4;
77365;PMS5003;66430;50.182;11.704;2023-04-24T07:17:14;5;5;
77365;PMS5003;66430;50.182;11.704;2023-04-24T07:19:40;4;3;
77365;PMS5003;66430;50.182;11.704;2023-04-24T07:22:05;3;3;
77365;PMS5003;66430;50.182;11.704;2023-04-24T07:24:31;3;3;
77365;PMS5003;66430;50.182;11.704;2023-04-24T07:26:56;3;3;
77365;PMS5003;66430;50.182;11.704;2023-04-24T07:29:21;4;4;
77365;PMS5003;66430;50.182;11.704;2023-04-24T07:31:47;4;3;
77365;PMS5003;66430;50.182;11.704;2023-04-24T07:34:12;4;4;
77365;PMS5003;66430;50.182;11.704;2023-04-24T07:36:38;2;2;
77365;PMS5003;66430;50.182;11.704;2023-04-24T07:39:03;6;4;
77365;PMS5003;66430;50.182;11.704;2023-04-24T07:41:28;2;2;
77365;PMS5003;66430;50.182;11.704;2023-04-24T07:43:54;2;2;
77365;PMS5003;66430;50.182;11.704;2023-04-24T07:46:19;3;3;
77365;PMS5003;66430;50.182;11.704;2023-04-24T07:48:45;4;2;
77365;PMS5003;66430;50.182;11.704;2023-04-24T07:51:10;4;3;
77365;PMS5003;66430;50.182;11.704;2023-04-24T07:53:36;3;3;
77365;PMS5003;66430;50.182;11.704;2023-04-24T07:56:01;2;2;
77365;PMS5003;66430;50.182;11.704;2023-04-24T07:58:26;3;3;
77365;PMS5003;66430;50.182;11.704;2023-04-24T08:00:52;3;3;
77365;PMS5003;66430;50.182;11.704;2023-04-24T08:03:17;2;2;
77365;PMS5003;66430;50.182;11.704;2023-04-24T08:05:43;3;3;
77365;PMS5003;66430;50.182;11.704;2023-04-24T08:08:08;2;1;
77365;PMS5003;66430;50.182;11.704;2023-04-24T08:10:34;3;3;
77365;PMS5003;66430;50.182;11.704;2023-04-24T08:12:59;3;2;
77365;PMS5003;66430;50.182;11.704;2023-04-24T08:15:26;2;2;
77365;PMS5003;66430;50.182;11.704;2023-04-24T08:17:50;3;3;
77365;PMS5003;66430;50.182;11.704;2023-04-24T08:20:15;3;2;
77365;PMS5003;66430;50.182;11.704;2023-04-24T08:22:41;1;1;
77365;PMS5003;66430;50.182;11.704;2023-04-24T08:25:06;3;3;
77365;PMS5003;66430;50.182;11.704;2023-04-24T08:27:32;4;4;
77365;PMS5003;66430;50.182;11.704;2023-04-24T08:29:57;2;2;
77365;PMS5003;66430;50.182;11.704;2023-04-24T08:32:22;2;2;
77365;PMS5003;66430;50.182;11.704;2023-04-24T08:34:48;3;3;
77365;PMS5003;66430;50.182;11.704;2023-04-24T08:37:13;3;3;
77365;PMS5003;66430;50.182;11.704;2023-04-24T08:39:39;1;1;
77365;PMS5003;66430;50.182;11.704;2023-04-24T08:42:04;3;3;
77365;PMS5003;66430;50.182;11.704;2023-04-24T08:44:30;3;3;
77365;PMS5003;66430;50.182;11.704;2023-04-24T08:46:55;2;2;
77365;PMS5003;66430;50.182;11.704;2023-04-24T08:49:20;5;5;
77365;PMS5003;66430;50.182;11.704;2023-04-24T08:51:46;3;3;
77365;PMS5003;66430;50.182;11.704;2023-04-24T08:54:13;4;4;
77365;PMS5003;66430;50.182;11.704;2023-04-24T08:56:37;5;4;
77365;PMS5003;66430;50.182;11.704;2023-04-24T08:59:02;4;3;
77365;PMS5003;66430;50.182;11.704;2023-04-24T09:01:28;2;2;
77365;PMS5003;66430;50.182;11.704;2023-04-24T09:03:53;2;2;
77365;PMS5003;66430;50.182;11.704;2023-04-24T09:06:18;3;3;
77365;PMS5003;66430;50.182;11.704;2023-04-24T09:08:44;8;3;
77365;PMS5003;66430;50.182;11.704;2023-04-24T09:11:09;3;3;
77365;PMS5003;66430;50.182;11.704;2023-04-24T09:13:35;4;4;
77365;PMS5003;66430;50.182;11.704;2023-04-24T09:16:00;6;6;
77365;PMS5003;66430;50.182;11.704;2023-04-24T09:18:26;3;3;
77365;PMS5003;66430;50.182;11.704;2023-04-24T09:20:57;4;4;
77365;PMS5003;66430;50.182;11.704;2023-04-24T09:23:17;5;5;
77365;PMS5003;66430;50.182;11.704;2023-04-24T09:25:42;5;5;
77365;PMS5003;66430;50.182;11.704;2023-04-24T09:28:07;4;4;
77365;PMS5003;66430;50.182;11.704;2023-04-24T09:30:33;5;5;
77365;PMS5003;66430;50.182;11.704;2023-04-24T09:35:23;6;5;
77365;PMS5003;66430;50.182;11.704;2023-04-24T09:37:49;6;6;
77365;PMS5003;66430;50.182;11.704;2023-04-24T09:40:15;4;4;
77365;PMS5003;66430;50.182;11.704;2023-04-24T09:42:40;5;5;
77365;PMS5003;66430;50.182;11.704;2023-04-24T09:45:08;2;2;
77365;PMS5003;66430;50.182;11.704;2023-04-24T09:47:35;3;3;
77365;PMS5003;66430;50.182;11.704;2023-04-24T09:49:57;4;3;
77365;PMS5003;66430;50.182;11.704;2023-04-24T09:52:21;3;3;
77365;PMS5003;66430;50.182;11.704;2023-04-24T09:54:52;5;5;
77365;PMS5003;66430;50.182;11.704;2023-04-24T09:57:14;4;4;
77365;PMS5003;66430;50.182;11.704;2023-04-24T09:59:42;3;3;
77365;PMS5003;66430;50.182;11.704;2023-04-24T10:02:03;3;3;
77365;PMS5003;66430;50.182;11.704;2023-04-24T10:04:28;3;3;
77365;PMS5003;66430;50.182;11.704;2023-04-24T10:06:54;3;3;
77365;PMS5003;66430;50.182;11.704;2023-04-24T10:09:20;4;4;
77365;PMS5003;66430;50.182;11.704;2023-04-24T10:11:45;5;5;
77365;PMS5003;66430;50.182;11.704;2023-04-24T10:14:12;4;4;
77365;PMS5003;66430;50.182;11.704;2023-04-24T10:16:36;4;4;
77365;PMS5003;66430;50.182;11.704;2023-04-24T10:19:01;6;5;
77365;PMS5003;66430;50.182;11.704;2023-04-24T10:21:27;4;4;
77365;PMS5003;66430;50.182;11.704;2023-04-24T10:23:52;6;6;
77365;PMS5003;66430;50.182;11.704;2023-04-24T10:26:17;4;4;
77365;PMS5003;66430;50.182;11.704;2023-04-24T10:28:44;6;6;
77365;PMS5003;66430;50.182;11.704;2023-04-24T10:31:08;5;5;
77365;PMS5003;66430;50.182;11.704;2023-04-24T10:33:34;5;5;
77365;PMS5003;66430;50.182;11.704;2023-04-24T10:35:59;4;4;
77365;PMS5003;66430;50.182;11.704;2023-04-24T10:38:25;7;5;
77365;PMS5003;66430;50.182;11.704;2023-04-24T10:40:50;5;5;
77365;PMS5003;66430;50.182;11.704;2023-04-24T10:43:16;4;4;
77365;PMS5003;66430;50.182;11.704;2023-04-24T10:45:41;6;6;
77365;PMS5003;66430;50.182;11.704;2023-04-24T10:48:07;5;4;
77365;PMS5003;66430;50.182;11.704;2023-04-24T11:00:14;3;3;
77365;PMS5003;66430;50.182;11.704;2023-04-24T11:02:39;4;4;
77365;PMS5003;66430;50.182;11.704;2023-04-24T11:05:04;6;5;
77365;PMS5003;66430;50.182;11.704;2023-04-24T11:07:29;3;3;
77365;PMS5003;66430;50.182;11.704;2023-04-24T11:09:57;3;3;
77365;PMS5003;66430;50.182;11.704;2023-04-24T11:12:20;4;4;
77365;PMS5003;66430;50.182;11.704;2023-04-24T11:17:26;4;4;
77365;PMS5003;66430;50.182;11.704;2023-04-24T11:19:37;4;4;
77365;PMS5003;66430;50.182;11.704;2023-04-24T11:22:02;4;4;
77365;PMS5003;66430;50.182;11.704;2023-04-24T11:24:28;6;5;
77365;PMS5003;66430;50.182;11.704;2023-04-24T11:26:53;4;4;
77365;PMS5003;66430;50.182;11.704;2023-04-24T11:29:19;9;8;
77365;PMS5003;66430;50.182;11.704;2023-04-24T11:31:44;6;6;
77365;PMS5003;66430;50.182;11.704;2023-04-24T11:34:09;7;5;
77365;PMS5003;66430;50.182;11.704;2023-04-24T11:36:34;6;6;
77365;PMS5003;66430;50.182;11.704;2023-04-24T11:39:00;4;4;
77365;PMS5003;66430;50.182;11.704;2023-04-24T11:41:25;5;5;
77365;PMS5003;66430;50.182;11.704;2023-04-24T11:43:50;6;6;
77365;PMS5003;66430;50.182;11.704;2023-04-24T11:46:17;6;5;
77365;PMS5003;66430;50.182;11.704;2023-04-24T11:48:44;4;4;
77365;PMS5003;66430;50.182;11.704;2023-04-24T11:51:07;4;4;
77365;PMS5003;66430;50.182;11.704;2023-04-24T11:53:32;3;3;
77365;PMS5003;66430;50.182;11.704;2023-04-24T11:56:02;2;2;
77365;PMS5003;66430;50.182;11.704;2023-04-24T11:58:23;2;2;
77365;PMS5003;66430;50.182;11.704;2023-04-24T12:03:14;4;4;
77365;PMS5003;66430;50.182;11.704;2023-04-24T12:05:39;4;4;
77365;PMS5003;66430;50.182;11.704;2023-04-24T12:08:05;3;3;
77365;PMS5003;66430;50.182;11.704;2023-04-24T12:10:31;2;2;
77365;PMS5003;66430;50.182;11.704;2023-04-24T12:12:56;2;2;
77365;PMS5003;66430;50.182;11.704;2023-04-24T12:15:21;2;2;
77365;PMS5003;66430;50.182;11.704;2023-04-24T12:17:46;3;3;
77365;PMS5003;66430;50.182;11.704;2023-04-24T12:20:12;3;2;
77365;PMS5003;66430;50.182;11.704;2023-04-24T12:22:43;2;2;
77365;PMS5003;66430;50.182;11.704;2023-04-24T12:25:03;5;4;
77365;PMS5003;66430;50.182;11.704;2023-04-24T12:27:30;2;2;
77365;PMS5003;66430;50.182;11.704;2023-04-24T12:29:55;2;2;
77365;PMS5003;66430;50.182;11.704;2023-04-24T12:32:19;3;3;
77365;PMS5003;66430;50.182;11.704;2023-04-24T12:34:44;6;4;
77365;PMS5003;66430;50.182;11.704;2023-04-24T12:37:10;3;3;
77365;PMS5003;66430;50.182;11.704;2023-04-24T12:39:35;6;6;
77365;PMS5003;66430;50.182;11.704;2023-04-24T12:42:00;5;5;
77365;PMS5003;66430;50.182;11.704;2023-04-24T12:44:29;4;4;
77365;PMS5003;66430;50.182;11.704;2023-04-24T12:46:51;4;4;
77365;PMS5003;66430;50.182;11.704;2023-04-24T12:49:16;3;3;
77365;PMS5003;66430;50.182;11.704;2023-04-24T12:51:42;7;7;
77365;PMS5003;66430;50.182;11.704;2023-04-24T12:54:07;4;3;
77365;PMS5003;66430;50.182;11.704;2023-04-24T12:56:33;5;5;
77365;PMS5003;66430;50.182;11.704;2023-04-24T12:58:58;6;5;
77365;PMS5003;66430;50.182;11.704;2023-04-24T13:01:24;5;5;
77365;PMS5003;66430;50.182;11.704;2023-04-24T13:03:49;7;7;
77365;PMS5003;66430;50.182;11.704;2023-04-24T13:06:14;9;6;
77365;PMS5003;66430;50.182;11.704;2023-04-24T13:08:40;5;5;
77365;PMS5003;66430;50.182;11.704;2023-04-24T13:11:05;6;6;
77365;PMS5003;66430;50.182;11.704;2023-04-24T13:13:31;6;5;
77365;PMS5003;66430;50.182;11.704;2023-04-24T13:15:56;7;7;
77365;PMS5003;66430;50.182;11.704;2023-04-24T13:18:21;6;6;
77365;PMS5003;66430;50.182;11.704;2023-04-24T13:20:47;7;7;
77365;PMS5003;66430;50.182;11.704;2023-04-24T13:23:12;8;6;
77365;PMS5003;66430;50.182;11.704;2023-04-24T13:25:38;9;9;
77365;PMS5003;66430;50.182;11.704;2023-04-24T13:28:04;5;5;
77365;PMS5003;66430;50.182;11.704;2023-04-24T13:30:29;3;3;
77365;PMS5003;66430;50.182;11.704;2023-04-24T13:32:55;4;4;
77365;PMS5003;66430;50.182;11.704;2023-04-24T13:35:20;8;7;
77365;PMS5003;66430;50.182;11.704;2023-04-24T13:37:45;4;4;
77365;PMS5003;66430;50.182;11.704;2023-04-24T13:40:11;6;6;
77365;PMS5003;66430;50.182;11.704;2023-04-24T13:42:36;5;5;
77365;PMS5003;66430;50.182;11.704;2023-04-24T13:45:02;5;5;
77365;PMS5003;66430;50.182;11.704;2023-04-24T13:47:27;8;7;
77365;PMS5003;66430;50.182;11.704;2023-04-24T13:49:52;6;6;
77365;PMS5003;66430;50.182;11.704;2023-04-24T13:52:18;6;6;
77365;PMS5003;66430;50.182;11.704;2023-04-24T13:54:43;7;7;
77365;PMS5003;66430;50.182;11.704;2023-04-24T13:57:09;7;7;
77365;PMS5003;66430;50.182;11.704;2023-04-24T13:59:34;9;9;
77365;PMS5003;66430;50.182;11.704;2023-04-24T14:01:59;8;8;
77365;PMS5003;66430;50.182;11.704;2023-04-24T14:04:25;5;5;
77365;PMS5003;66430;50.182;11.704;2023-04-24T14:06:50;6;6;
77365;PMS5003;66430;50.182;11.704;2023-04-24T14:09:16;6;6;
77365;PMS5003;66430;50.182;11.704;2023-04-24T14:11:41;6;6;
77365;PMS5003;66430;50.182;11.704;2023-04-24T14:14:06;10;10;
77365;PMS5003;66430;50.182;11.704;2023-04-24T14:16:32;4;4;
77365;PMS5003;66430;50.182;11.704;2023-04-24T14:18:57;5;5;
77365;PMS5003;66430;50.182;11.704;2023-04-24T14:21:22;5;5;
77365;PMS5003;66430;50.182;11.704;2023-04-24T14:23:48;4;4;
77365;PMS5003;66430;50.182;11.704;2023-04-24T14:26:13;7;7;
77365;PMS5003;66430;50.182;11.704;2023-04-24T14:28:39;6;5;
77365;PMS5003;66430;50.182;11.704;2023-04-24T14:31:04;5;5;
77365;PMS5003;66430;50.182;11.704;2023-04-24T14:33:29;4;4;
77365;PMS5003;66430;50.182;11.704;2023-04-24T14:35:55;8;8;
77365;PMS5003;66430;50.182;11.704;2023-04-24T14:38:21;5;5;
77365;PMS5003;66430;50.182;11.704;2023-04-24T14:40:46;6;6;
77365;PMS5003;66430;50.182;11.704;2023-04-24T14:43:11;6;5;
77365;PMS5003;66430;50.182;11.704;2023-04-24T14:45:37;7;5;
77365;PMS5003;66430;50.182;11.704;2023-04-24T14:48:02;5;5;
77365;PMS5003;66430;50.182;11.704;2023-04-24T14:50:27;6;6;
77365;PMS5003;66430;50.182;11.704;2023-04-24T14:52:53;6;6;
77365;PMS5003;66430;50.182;11.704;2023-04-24T14:55:18;6;6;
77365;PMS5003;66430;50.182;11.704;2023-04-24T14:57:44;6;6;
77365;PMS5003;66430;50.182;11.704;2023-04-24T15:00:09;6;6;
77365;PMS5003;66430;50.182;11.704;2023-04-24T15:02:35;7;7;
77365;PMS5003;66430;50.182;11.704;2023-04-24T15:05:00;6;6;
77365;PMS5003;66430;50.182;11.704;2023-04-24T15:07:25;6;5;
77365;PMS5003;66430;50.182;11.704;2023-04-24T15:09:51;5;5;
77365;PMS5003;66430;50.182;11.704;2023-04-24T15:12:16;6;5;
77365;PMS5003;66430;50.182;11.704;2023-04-24T15:14:41;8;7;
77365;PMS5003;66430;50.182;11.704;2023-04-24T15:17:07;7;7;
77365;PMS5003;66430;50.182;11.704;2023-04-24T15:19:37;8;6;
77365;PMS5003;66430;50.182;11.704;2023-04-24T15:21:58;5;5;
77365;PMS5003;66430;50.182;11.704;2023-04-24T15:24:23;6;6;
77365;PMS5003;66430;50.182;11.704;2023-04-24T15:26:49;6;5;
77365;PMS5003;66430;50.182;11.704;2023-04-24T15:29:14;4;4;
77365;PMS5003;66430;50.182;11.704;2023-04-24T15:31:39;7;7;
77365;PMS5003;66430;50.182;11.704;2023-04-24T15:34:05;6;6;
77365;PMS5003;66430;50.182;11.704;2023-04-24T15:36:30;5;5;
77365;PMS5003;66430;50.182;11.704;2023-04-24T15:38:56;5;4;
77365;PMS5003;66430;50.182;11.704;2023-04-24T15:41:21;6;6;
77365;PMS5003;66430;50.182;11.704;2023-04-24T15:43:47;6;6;
77365;PMS5003;66430;50.182;11.704;2023-04-24T15:46:12;6;5;
77365;PMS5003;66430;50.182;11.704;2023-04-24T15:48:37;3;3;
77365;PMS5003;66430;50.182;11.704;2023-04-24T15:51:03;4;3;
77365;PMS5003;66430;50.182;11.704;2023-04-24T15:53:29;3;3;
77365;PMS5003;66430;50.182;11.704;2023-04-24T15:55:54;2;2;
77365;PMS5003;66430;50.182;11.704;2023-04-24T15:58:20;3;3;
77365;PMS5003;66430;50.182;11.704;2023-04-24T16:00:45;2;2;
77365;PMS5003;66430;50.182;11.704;2023-04-24T16:03:10;3;3;
77365;PMS5003;66430;50.182;11.704;2023-04-24T16:05:36;3;3;
77365;PMS5003;66430;50.182;11.704;2023-04-24T16:08:01;4;4;
77365;PMS5003;66430;50.182;11.704;2023-04-24T16:10:26;3;3;
77365;PMS5003;66430;50.182;11.704;2023-04-24T16:12:57;4;4;
77365;PMS5003;66430;50.182;11.704;2023-04-24T16:15:18;4;4;
77365;PMS5003;66430;50.182;11.704;2023-04-24T16:17:43;8;5;
77365;PMS5003;66430;50.182;11.704;2023-04-24T16:20:08;6;5;
77365;PMS5003;66430;50.182;11.704;2023-04-24T16:22:33;5;5;
77365;PMS5003;66430;50.182;11.704;2023-04-24T16:24:59;5;5;
77365;PMS5003;66430;50.182;11.704;2023-04-24T16:27:24;6;6;
77365;PMS5003;66430;50.182;11.704;2023-04-24T16:29:50;7;7;
77365;PMS5003;66430;50.182;11.704;2023-04-24T16:32:15;6;6;
77365;PMS5003;66430;50.182;11.704;2023-04-24T16:34:40;7;5;
77365;PMS5003;66430;50.182;11.704;2023-04-24T16:37:06;7;6;